Time,TemperatureF,DewpointF,PressureIn,WindDirection,WindDirectionDegrees,WindSpeedMPH,WindSpeedGustMPH,Humidity,HourlyPrecipIn,Conditions,Clouds,dailyrainin,SoftwareType,DateUTC
2013-07-20 00:00:00,80.2,64.1,31.01,North,0,0.0,0.0,58,0.00,CLR,FEW,0.00,WeatherDisplay:10.37,2013-07-20 04:00:00,
2013-07-20 00:01:00,80.2,64.1,31.01,North,0,0.0,0.0,58,0.00,CLR,FEW,0.00,WeatherDisplay:10.37,2013-07-20 04:01:00,
2013-07-20 00:03:00,80.1,64.0,31.01,North,0,0.0,0.0,58,0.00,CLR,FEW,0.00,WeatherDisplay:10.37,2013-07-20 04:03:00,
2013-07-20 00:05:00,80.1,64.4,31.01,North,0,0.0,0.0,59,0.00,CLR,FEW,0.00,WeatherDisplay:10.37,2013-07-20 04:05:00,
2013-07-20 00:07:00,80.1,64.4,31.01,North,0,0.0,0.0,59,0.00,CLR,FEW,0.00,WeatherDisplay:10.37,2013-07-20 04:07:00,
2013-07-20 00:08:00,80.1,64.4,31.01,North,0,0.0,0.0,59,0.00,CLR,FEW,0.00,WeatherDisplay:10.37,2013-07-20 04:08:00,
2013-07-20 00:13:00,80.1,64.9,31.01,North,0,0.0,0.0,60,0.00,CLR,FEW,0.00,WeatherDisplay:10.37,2013-07-20 04:13:00,
2013-07-20 00:18:00,80.1,64.9,31.01,North,0,0.0,0.0,60,0.00,CLR,FEW,0.00,WeatherDisplay:10.37,2013-07-20 04:18:00,
2013-07-20 00:23:00,80.1,65.4,31.01,North,0,0.0,0.0,61,0.00,CLR,FEW,0.00,WeatherDisplay:10.37,2013-07-20 04:23:00,
2013-07-20 00:28:00,79.9,65.2,31.01,North,0,0.0,0.0,61,0.00,CLR,FEW,0.00,WeatherDisplay:10.37,2013-07-20 04:28:00,
2013-07-20 00:33:00,80.1,65.9,31.01,North,0,0.0,0.0,62,0.00,CLR,FEW,0.00,WeatherDisplay:10.37,2013-07-20 04:33:00,
2013-07-20 00:38:00,80.2,66.0,31.01,North,0,0.0,0.0,62,0.00,CLR,FEW,0.00,WeatherDisplay:10.37,2013-07-20 04:38:00,
2013-07-20 00:43:00,80.1,65.4,31.01,North,0,0.0,0.0,61,0.00,CLR,FEW,0.00,WeatherDisplay:10.37,2013-07-20 04:43:00,
2013-07-20 00:48:00,79.9,65.2,31.01,North,0,0.0,0.0,61,0.00,CLR,FEW,0.00,WeatherDisplay:10.37,2013-07-20 04:48:00,
2013-07-20 00:53:00,79.9,65.2,31.01,North,0,0.0,0.0,61,0.00,CLR,FEW,0.00,WeatherDisplay:10.37,2013-07-20 04:53:00,
2013-07-20 00:58:00,80.1,64.9,31.01,North,0,0.0,0.0,60,0.00,CLR,FEW,0.00,WeatherDisplay:10.37,2013-07-20 04:58:00,
2013-07-20 01:03:00,79.9,64.3,31.01,North,0,0.0,0.0,59,0.00,CLR,FEW,0.00,WeatherDisplay:10.37,2013-07-20 05:03:00,
2013-07-20 01:08:00,79.7,64.6,31.01,North,0,0.0,0.0,60,0.00,CLR,FEW,0.00,WeatherDisplay:10.37,2013-07-20 05:08:00,
2013-07-20 01:13:00,79.7,64.6,31.01,North,0,0.0,0.0,60,0.00,CLR,FEW,0.00,WeatherDisplay:10.37,2013-07-20 05:13:00,
2013-07-20 01:18:00,79.5,65.4,31.01,North,0,0.0,0.0,62,0.00,CLR,FEW,0.00,WeatherDisplay:10.37,2013-07-20 05:18:00,
2013-07-20 01:23:00,79.3,65.6,31.01,North,0,0.0,0.0,63,0.00,CLR,FEW,0.00,WeatherDisplay:10.37,2013-07-20 05:23:00,
2013-07-20 01:28:00,79.3,65.6,31.01,North,0,0.0,0.0,63,0.00,CLR,FEW,0.00,WeatherDisplay:10.37,2013-07-20 05:28:00,
2013-07-20 01:33:00,79.3,66.1,31.01,North,0,0.0,0.0,64,0.00,CLR,FEW,0.00,WeatherDisplay:10.37,2013-07-20 05:33:00,
2013-07-20 01:39:00,79.3,66.1,31.01,North,0,0.0,0.0,64,0.00,CLR,FEW,0.00,WeatherDisplay:10.37,2013-07-20 05:39:00,
2013-07-20 01:44:00,79.3,66.1,31.01,North,0,0.0,0.0,64,0.00,CLR,FEW,0.00,WeatherDisplay:10.37,2013-07-20 05:44:00,
2013-07-20 01:49:00,79.3,66.5,31.01,North,0,0.0,0.0,65,0.00,CLR,FEW,0.00,WeatherDisplay:10.37,2013-07-20 05:49:00,
2013-07-20 01:54:00,79.5,66.7,31.01,North,0,0.0,0.0,65,0.00,CLR,FEW,0.00,WeatherDisplay:10.37,2013-07-20 05:54:00,
2013-07-20 01:59:00,79.5,66.7,31.01,North,0,0.0,0.0,65,0.00,CLR,FEW,0.00,WeatherDisplay:10.37,2013-07-20 05:59:00,
2013-07-20 02:04:00,79.5,67.2,31.01,North,0,0.0,0.0,66,0.00,CLR,FEW,0.00,WeatherDisplay:10.37,2013-07-20 06:04:00,
2013-07-20 02:09:00,79.5,67.6,31.01,North,0,0.0,0.0,67,0.00,CLR,FEW,0.00,WeatherDisplay:10.37,2013-07-20 06:09:00,
2013-07-20 02:14:00,79.7,67.8,31.01,North,0,0.0,0.0,67,0.00,CLR,FEW,0.00,WeatherDisplay:10.37,2013-07-20 06:14:00,
2013-07-20 02:19:00,79.7,67.3,31.01,North,0,0.0,0.0,66,0.00,CLR,FEW,0.00,WeatherDisplay:10.37,2013-07-20 06:19:00,
2013-07-20 02:24:00,79.7,67.3,31.01,North,0,0.0,0.0,66,0.00,CLR,FEW,0.00,WeatherDisplay:10.37,2013-07-20 06:24:00,
2013-07-20 02:29:00,79.5,67.2,31.01,North,0,0.0,0.0,66,0.00,CLR,FEW,0.00,WeatherDisplay:10.37,2013-07-20 06:29:00,
2013-07-20 02:34:00,79.5,66.7,31.01,North,0,0.0,0.0,65,0.00,CLR,FEW,0.00,WeatherDisplay:10.37,2013-07-20 06:34:00,
2013-07-20 02:39:00,79.7,66.4,31.01,North,0,0.0,0.0,64,0.00,CLR,FEW,0.00,WeatherDisplay:10.37,2013-07-20 06:39:00,
2013-07-20 02:44:00,79.9,66.6,31.01,North,0,0.0,0.0,64,0.00,CLR,FEW,0.00,WeatherDisplay:10.37,2013-07-20 06:44:00,
2013-07-20 02:49:00,79.7,66.4,31.01,North,0,0.0,0.0,64,0.00,CLR,FEW,0.00,WeatherDisplay:10.37,2013-07-20 06:49:00,
2013-07-20 02:54:00,79.7,66.4,31.01,North,0,0.0,0.0,64,0.00,CLR,FEW,0.00,WeatherDisplay:10.37,2013-07-20 06:54:00,
2013-07-20 02:59:00,79.9,66.2,31.01,North,0,0.0,0.0,63,0.00,CLR,FEW,0.00,WeatherDisplay:10.37,2013-07-20 06:59:00,
2013-07-20 03:04:00,79.9,66.6,31.01,North,0,0.0,0.0,64,0.00,CLR,FEW,0.00,WeatherDisplay:10.37,2013-07-20 07:04:00,
2013-07-20 03:09:00,79.7,66.4,31.01,North,0,0.0,0.0,64,0.00,CLR,FEW,0.00,WeatherDisplay:10.37,2013-07-20 07:09:00,
2013-07-20 03:14:00,79.3,65.2,31.01,North,0,0.0,0.0,62,0.00,CLR,FEW,0.00,WeatherDisplay:10.37,2013-07-20 07:14:00,
2013-07-20 03:19:00,79.3,65.6,31.01,North,0,0.0,0.0,63,0.00,CLR,FEW,0.00,WeatherDisplay:10.37,2013-07-20 07:19:00,
2013-07-20 03:24:00,79.2,65.9,31.01,North,0,0.0,0.0,64,0.00,CLR,FEW,0.00,WeatherDisplay:10.37,2013-07-20 07:24:00,
2013-07-20 03:29:00,79.0,66.2,31.01,North,0,0.0,0.0,65,0.00,CLR,FEW,0.00,WeatherDisplay:10.37,2013-07-20 07:29:00,
2013-07-20 03:34:00,78.8,66.5,31.01,North,0,0.0,0.0,66,0.00,CLR,FEW,0.00,WeatherDisplay:10.37,2013-07-20 07:34:00,
2013-07-20 03:39:00,78.8,66.5,31.01,North,0,0.0,0.0,66,0.00,CLR,FEW,0.00,WeatherDisplay:10.37,2013-07-20 07:39:00,
2013-07-20 03:44:00,78.8,66.9,31.01,North,0,0.0,0.0,67,0.00,CLR,FEW,0.00,WeatherDisplay:10.37,2013-07-20 07:44:00,
2013-07-20 03:49:00,78.6,67.6,31.01,North,0,0.0,0.0,69,0.00,CLR,FEW,0.00,WeatherDisplay:10.37,2013-07-20 07:49:00,
2013-07-20 03:54:00,78.6,67.6,31.01,North,0,0.0,0.0,69,0.00,CLR,FEW,0.00,WeatherDisplay:10.37,2013-07-20 07:54:00,
2013-07-20 03:59:00,78.8,67.3,31.01,North,0,0.0,0.0,68,0.00,CLR,FEW,0.00,WeatherDisplay:10.37,2013-07-20 07:59:00,
2013-07-20 04:04:00,78.8,66.9,31.01,North,0,0.0,0.0,67,0.00,CLR,FEW,0.00,WeatherDisplay:10.37,2013-07-20 08:04:00,
2013-07-20 04:09:00,78.8,66.5,31.01,North,0,0.0,0.0,66,0.00,CLR,FEW,0.00,WeatherDisplay:10.37,2013-07-20 08:09:00,
2013-07-20 04:14:00,79.0,67.1,31.01,North,0,0.0,0.0,67,0.00,CLR,FEW,0.00,WeatherDisplay:10.37,2013-07-20 08:14:00,
2013-07-20 04:19:00,79.0,66.6,31.01,North,0,0.0,0.0,66,0.00,CLR,FEW,0.00,WeatherDisplay:10.37,2013-07-20 08:19:00,
2013-07-20 04:24:00,79.0,66.6,31.01,North,0,0.0,0.0,66,0.00,CLR,FEW,0.00,WeatherDisplay:10.37,2013-07-20 08:24:00,
2013-07-20 04:29:00,79.2,66.8,31.01,North,0,0.0,0.0,66,0.00,CLR,FEW,0.00,WeatherDisplay:10.37,2013-07-20 08:29:00,
2013-07-20 04:34:00,79.0,66.2,31.01,North,0,0.0,0.0,65,0.00,CLR,FEW,0.00,WeatherDisplay:10.37,2013-07-20 08:34:00,
2013-07-20 04:39:00,79.0,65.8,31.01,North,0,0.0,0.0,64,0.00,CLR,FEW,0.00,WeatherDisplay:10.37,2013-07-20 08:39:00,
2013-07-20 04:44:00,79.0,65.3,31.01,North,0,0.0,0.0,63,0.00,CLR,FEW,0.00,WeatherDisplay:10.37,2013-07-20 08:44:00,
2013-07-20 04:49:00,79.0,65.3,31.01,North,0,0.0,0.0,63,0.00,CLR,FEW,0.00,WeatherDisplay:10.37,2013-07-20 08:49:00,
2013-07-20 04:54:00,79.0,63.9,31.01,North,0,0.0,0.0,60,0.00,CLR,FEW,0.00,WeatherDisplay:10.37,2013-07-20 08:54:00,
2013-07-20 04:59:00,79.0,62.9,31.01,North,0,0.0,0.0,58,0.00,CLR,FEW,0.00,WeatherDisplay:10.37,2013-07-20 08:59:00,
2013-07-20 05:04:00,79.0,62.9,31.01,North,0,0.0,0.0,58,0.00,CLR,FEW,0.00,WeatherDisplay:10.37,2013-07-20 09:04:00,
2013-07-20 05:09:00,78.8,63.3,31.01,North,0,0.0,0.0,59,0.00,CLR,FEW,0.00,WeatherDisplay:10.37,2013-07-20 09:09:00,
2013-07-20 05:14:00,78.8,63.7,31.01,North,0,0.0,0.0,60,0.00,CLR,FEW,0.00,WeatherDisplay:10.37,2013-07-20 09:14:00,
2013-07-20 05:19:00,78.6,64.0,31.01,North,0,0.0,0.0,61,0.00,CLR,FEW,0.00,WeatherDisplay:10.37,2013-07-20 09:19:00,
2013-07-20 05:24:00,78.8,63.7,31.01,North,0,0.0,0.0,60,0.00,CLR,FEW,0.00,WeatherDisplay:10.37,2013-07-20 09:24:00,
2013-07-20 05:29:00,78.6,64.0,31.01,North,0,0.0,0.0,61,0.00,CLR,FEW,0.00,WeatherDisplay:10.37,2013-07-20 09:29:00,
2013-07-20 05:34:00,78.4,63.9,31.01,North,0,0.0,0.0,61,0.00,CLR,FEW,0.00,WeatherDisplay:10.37,2013-07-20 09:34:00,
2013-07-20 05:39:00,78.3,63.7,31.01,North,0,0.0,0.0,61,0.00,CLR,FEW,0.00,WeatherDisplay:10.37,2013-07-20 09:39:00,
2013-07-20 05:44:00,78.1,63.5,31.01,North,0,0.0,0.0,61,0.00,CLR,FEW,0.00,WeatherDisplay:10.37,2013-07-20 09:44:00,
2013-07-20 05:49:00,77.9,62.9,31.01,North,0,0.0,0.0,60,0.00,CLR,FEW,0.00,WeatherDisplay:10.37,2013-07-20 09:49:00,
2013-07-20 05:54:00,77.7,62.7,31.01,North,0,0.0,0.0,60,0.00,CLR,FEW,0.00,WeatherDisplay:10.37,2013-07-20 09:54:00,
2013-07-20 05:59:00,77.7,62.7,31.01,North,0,0.0,0.0,60,0.00,CLR,FEW,0.00,WeatherDisplay:10.37,2013-07-20 09:59:00,
2013-07-20 06:04:00,77.5,61.6,31.01,North,0,0.0,0.0,58,0.00,CLR,FEW,0.00,WeatherDisplay:10.37,2013-07-20 10:04:00,
2013-07-20 06:09:00,77.5,61.6,31.01,North,0,0.0,0.0,58,0.00,CLR,FEW,0.00,WeatherDisplay:10.37,2013-07-20 10:09:00,
2013-07-20 06:14:00,77.5,62.1,31.01,North,0,0.0,0.0,59,0.00,CLR,FEW,0.00,WeatherDisplay:10.37,2013-07-20 10:14:00,
2013-07-20 06:19:00,77.7,62.2,31.01,North,0,0.0,0.0,59,0.00,CLR,FEW,0.00,WeatherDisplay:10.37,2013-07-20 10:19:00,
2013-07-20 06:24:00,77.5,61.6,31.01,North,0,0.0,0.0,58,0.00,CLR,FEW,0.00,WeatherDisplay:10.37,2013-07-20 10:24:00,
2013-07-20 06:29:00,77.5,62.1,31.01,North,0,0.0,0.0,59,0.00,CLR,FEW,0.00,WeatherDisplay:10.37,2013-07-20 10:29:00,
2013-07-20 06:34:00,77.4,61.9,31.01,North,0,0.0,0.0,59,0.00,CLR,FEW,0.00,WeatherDisplay:10.37,2013-07-20 10:34:00,
2013-07-20 06:39:00,77.4,62.4,31.01,North,0,0.0,0.0,60,0.00,CLR,FEW,0.00,WeatherDisplay:10.37,2013-07-20 10:39:00,
2013-07-20 06:44:00,77.4,62.4,31.01,North,0,0.0,0.0,60,0.00,CLR,FEW,0.00,WeatherDisplay:10.37,2013-07-20 10:44:00,
2013-07-20 06:49:00,77.4,62.4,31.01,North,0,0.0,0.0,60,0.00,CLR,FEW,0.00,WeatherDisplay:10.37,2013-07-20 10:49:00,
2013-07-20 06:54:00,77.2,62.7,31.01,North,0,0.0,0.0,61,0.00,CLR,FEW,0.00,WeatherDisplay:10.37,2013-07-20 10:54:00,
2013-07-20 06:59:00,77.4,63.3,31.01,North,0,0.0,0.0,62,0.00,CLR,FEW,0.00,WeatherDisplay:10.37,2013-07-20 10:59:00,
2013-07-20 07:04:00,77.5,63.5,31.01,North,0,0.0,0.0,62,0.00,CLR,FEW,0.00,WeatherDisplay:10.37,2013-07-20 11:04:00,
2013-07-20 07:09:00,77.7,63.2,31.01,North,0,0.0,0.0,61,0.00,CLR,FEW,0.00,WeatherDisplay:10.37,2013-07-20 11:09:00,
2013-07-20 07:14:00,77.7,63.2,31.01,North,0,0.0,0.0,61,0.00,CLR,FEW,0.00,WeatherDisplay:10.37,2013-07-20 11:14:00,
2013-07-20 07:19:00,78.1,63.5,31.01,North,0,0.0,0.0,61,0.00,CLR,FEW,0.00,WeatherDisplay:10.37,2013-07-20 11:19:00,
2013-07-20 07:24:00,78.3,63.7,31.01,North,0,0.0,0.0,61,0.00,CLR,FEW,0.00,WeatherDisplay:10.37,2013-07-20 11:24:00,
2013-07-20 07:29:00,78.4,63.9,31.01,North,0,0.0,0.0,61,0.00,CLR,FEW,0.00,WeatherDisplay:10.37,2013-07-20 11:29:00,
2013-07-20 07:34:00,78.8,63.7,31.01,North,0,0.0,0.0,60,0.00,CLR,FEW,0.00,WeatherDisplay:10.37,2013-07-20 11:34:00,
2013-07-20 07:39:00,79.2,64.1,31.01,North,0,0.0,0.0,60,0.00,CLR,FEW,0.00,WeatherDisplay:10.37,2013-07-20 11:39:00,
2013-07-20 07:44:00,79.5,63.9,31.01,North,0,0.0,0.0,59,0.00,CLR,FEW,0.00,WeatherDisplay:10.37,2013-07-20 11:44:00,
2013-07-20 07:49:00,79.9,63.8,31.01,North,0,0.0,0.0,58,0.00,CLR,FEW,0.00,WeatherDisplay:10.37,2013-07-20 11:49:00,
2013-07-20 07:54:00,80.1,63.5,31.01,North,0,0.0,0.0,57,0.00,CLR,FEW,0.00,WeatherDisplay:10.37,2013-07-20 11:54:00,
2013-07-20 07:59:00,79.7,63.1,31.01,North,0,0.0,0.0,57,0.00,CLR,FEW,0.00,WeatherDisplay:10.37,2013-07-20 11:59:00,
2013-07-20 08:04:00,79.5,63.9,31.01,North,0,0.0,0.0,59,0.00,CLR,FEW,0.00,WeatherDisplay:10.37,2013-07-20 12:04:00,
2013-07-20 08:09:00,79.5,64.4,31.01,North,0,0.0,0.0,60,0.00,CLR,FEW,0.00,WeatherDisplay:10.37,2013-07-20 12:09:00,
2013-07-20 08:14:00,79.7,65.1,31.01,North,0,0.0,0.0,61,0.00,CLR,FEW,0.00,WeatherDisplay:10.37,2013-07-20 12:14:00,
2013-07-20 08:19:00,80.2,66.0,31.01,North,0,0.0,0.0,62,0.00,CLR,FEW,0.00,WeatherDisplay:10.37,2013-07-20 12:19:00,
2013-07-20 08:24:00,80.8,66.1,31.01,North,0,0.0,0.0,61,0.00,CLR,FEW,0.00,WeatherDisplay:10.37,2013-07-20 12:24:00,
2013-07-20 08:29:00,81.5,64.8,31.01,North,0,0.0,0.0,57,0.00,CLR,FEW,0.00,WeatherDisplay:10.37,2013-07-20 12:29:00,
2013-07-20 08:34:00,81.9,64.1,31.01,North,0,0.0,0.0,55,0.00,CLR,FEW,0.00,WeatherDisplay:10.37,2013-07-20 12:34:00,
2013-07-20 08:40:00,82.4,63.5,31.01,North,0,0.0,0.0,53,0.00,CLR,FEW,0.00,WeatherDisplay:10.37,2013-07-20 12:40:00,
2013-07-20 08:45:00,82.9,63.5,31.01,North,0,0.0,0.0,52,0.00,CLR,FEW,0.00,WeatherDisplay:10.37,2013-07-20 12:45:00,
2013-07-20 08:50:00,83.1,63.1,31.01,North,0,0.0,0.0,51,0.00,CLR,FEW,0.00,WeatherDisplay:10.37,2013-07-20 12:50:00,
2013-07-20 08:55:00,83.7,63.0,31.01,North,0,0.0,0.0,50,0.00,CLR,FEW,0.00,WeatherDisplay:10.37,2013-07-20 12:55:00,
2013-07-20 09:00:00,84.0,62.8,31.01,North,0,0.0,0.0,49,0.00,CLR,FEW,0.00,WeatherDisplay:10.37,2013-07-20 13:00:00,
2013-07-20 09:05:00,84.4,61.3,31.01,North,0,0.0,0.0,46,0.00,CLR,FEW,0.00,WeatherDisplay:10.37,2013-07-20 13:05:00,
2013-07-20 09:10:00,84.2,60.6,31.01,North,0,0.0,0.0,45,0.00,CLR,FEW,0.00,WeatherDisplay:10.37,2013-07-20 13:10:00,
2013-07-20 09:15:00,83.8,60.2,31.01,North,0,0.0,0.0,45,0.00,CLR,FEW,0.00,WeatherDisplay:10.37,2013-07-20 13:15:00,
2013-07-20 09:20:00,83.5,59.9,31.01,North,0,0.0,0.0,45,0.00,CLR,FEW,0.00,WeatherDisplay:10.37,2013-07-20 13:20:00,
2013-07-20 09:25:00,83.8,61.5,31.01,North,0,0.0,0.0,47,0.00,CLR,FEW,0.00,WeatherDisplay:10.37,2013-07-20 13:25:00,
2013-07-20 09:30:00,84.2,59.9,31.01,North,0,0.0,0.0,44,0.00,CLR,FEW,0.00,WeatherDisplay:10.37,2013-07-20 13:30:00,
2013-07-20 09:35:00,84.6,58.9,31.01,North,0,0.0,0.0,42,0.00,CLR,FEW,0.00,WeatherDisplay:10.37,2013-07-20 13:35:00,
2013-07-20 09:40:00,84.9,59.9,31.01,North,0,0.0,0.0,43,0.00,CLR,FEW,0.00,WeatherDisplay:10.37,2013-07-20 13:40:00,
2013-07-20 09:45:00,84.7,59.1,31.01,North,0,0.0,0.0,42,0.00,CLR,FEW,0.00,WeatherDisplay:10.37,2013-07-20 13:45:00,
2013-07-20 09:50:00,84.9,59.3,31.01,North,0,0.0,0.0,42,0.00,CLR,FEW,0.00,WeatherDisplay:10.37,2013-07-20 13:50:00,
2013-07-20 09:55:00,85.5,59.1,31.01,North,0,0.0,0.0,41,0.00,CLR,FEW,0.00,WeatherDisplay:10.37,2013-07-20 13:55:00,
2013-07-20 10:00:00,85.5,57.7,31.01,North,0,0.0,0.0,39,0.00,CLR,FEW,0.00,WeatherDisplay:10.37,2013-07-20 14:00:00,
2013-07-20 10:05:00,84.7,57.7,31.01,North,0,0.0,0.0,40,0.00,CLR,FEW,0.00,WeatherDisplay:10.37,2013-07-20 14:05:00,
2013-07-20 10:10:00,84.2,58.6,31.01,North,0,0.0,0.0,42,0.00,CLR,FEW,0.00,WeatherDisplay:10.37,2013-07-20 14:10:00,
2013-07-20 10:15:00,84.6,58.9,31.01,North,0,0.0,0.0,42,0.00,CLR,FEW,0.00,WeatherDisplay:10.37,2013-07-20 14:15:00,
2013-07-20 10:20:00,85.5,59.1,31.01,North,0,0.0,0.0,41,0.00,CLR,FEW,0.00,WeatherDisplay:10.37,2013-07-20 14:20:00,
2013-07-20 10:25:00,86.5,57.9,31.01,North,0,0.0,0.0,38,0.00,CLR,FEW,0.00,WeatherDisplay:10.37,2013-07-20 14:25:00,
2013-07-20 10:30:00,86.4,55.5,31.01,North,0,0.0,0.0,35,0.00,CLR,FEW,0.00,WeatherDisplay:10.37,2013-07-20 14:30:00,
2013-07-20 10:35:00,86.0,55.9,31.01,North,0,0.0,0.0,36,0.00,CLR,FEW,0.00,WeatherDisplay:10.37,2013-07-20 14:35:00,
2013-07-20 10:40:00,85.8,56.5,31.01,North,0,0.0,0.0,37,0.00,CLR,FEW,0.00,WeatherDisplay:10.37,2013-07-20 14:40:00,
2013-07-20 10:45:00,85.5,53.9,31.01,North,0,0.0,0.0,34,0.00,CLR,FEW,0.00,WeatherDisplay:10.37,2013-07-20 14:45:00,
2013-07-20 10:50:00,84.6,55.4,31.01,North,0,0.0,0.0,37,0.00,CLR,FEW,0.00,WeatherDisplay:10.37,2013-07-20 14:50:00,
2013-07-20 10:55:00,84.0,56.4,31.01,North,0,0.0,0.0,39,0.00,CLR,FEW,0.00,WeatherDisplay:10.37,2013-07-20 14:55:00,
2013-07-20 11:00:00,83.8,55.5,31.01,North,0,0.0,0.0,38,0.00,CLR,FEW,0.00,WeatherDisplay:10.37,2013-07-20 15:00:00,
2013-07-20 11:05:00,84.6,56.9,31.01,North,0,0.0,0.0,39,0.00,CLR,FEW,0.00,WeatherDisplay:10.37,2013-07-20 15:05:00,
2013-07-20 11:10:00,85.5,56.2,31.01,North,0,0.0,0.0,37,0.00,CLR,FEW,0.00,WeatherDisplay:10.37,2013-07-20 15:10:00,
2013-07-20 11:15:00,86.2,54.5,31.01,North,0,0.0,0.0,34,0.00,CLR,FEW,0.00,WeatherDisplay:10.37,2013-07-20 15:15:00,
2013-07-20 11:20:00,86.9,54.3,31.01,North,0,0.0,0.0,33,0.00,CLR,FEW,0.00,WeatherDisplay:10.37,2013-07-20 15:20:00,
2013-07-20 11:25:00,86.7,53.3,31.01,North,0,0.0,0.0,32,0.00,CLR,FEW,0.00,WeatherDisplay:10.37,2013-07-20 15:25:00,
2013-07-20 11:30:00,86.9,56.0,31.01,North,0,0.0,0.0,35,0.00,CLR,FEW,0.00,WeatherDisplay:10.37,2013-07-20 15:30:00,
2013-07-20 11:35:00,85.8,54.2,31.01,North,0,0.0,0.0,34,0.00,CLR,FEW,0.00,WeatherDisplay:10.37,2013-07-20 15:35:00,
2013-07-20 11:40:00,84.7,53.3,31.01,North,0,0.0,0.0,34,0.00,CLR,FEW,0.00,WeatherDisplay:10.37,2013-07-20 15:40:00,
2013-07-20 11:45:00,83.8,53.3,31.01,North,0,0.0,0.0,35,0.00,CLR,FEW,0.00,WeatherDisplay:10.37,2013-07-20 15:45:00,
2013-07-20 11:50:00,83.1,51.8,31.01,North,0,0.0,0.0,34,0.00,CLR,FEW,0.00,WeatherDisplay:10.37,2013-07-20 15:50:00,
2013-07-20 11:55:00,82.6,55.8,31.01,North,0,0.0,0.0,40,0.00,CLR,FEW,0.00,WeatherDisplay:10.37,2013-07-20 15:55:00,
2013-07-20 12:00:00,82.0,58.0,31.01,North,0,0.0,0.0,44,0.00,CLR,FEW,0.00,WeatherDisplay:10.37,2013-07-20 16:00:00,
2013-07-20 12:05:00,81.5,58.1,31.01,North,0,0.0,0.0,45,0.00,CLR,FEW,0.00,WeatherDisplay:10.37,2013-07-20 16:05:00,
2013-07-20 12:10:00,81.0,57.6,31.01,North,0,0.0,0.0,45,0.00,CLR,FEW,0.00,WeatherDisplay:10.37,2013-07-20 16:10:00,
2013-07-20 12:15:00,80.6,58.5,31.01,North,0,0.0,0.0,47,0.00,CLR,FEW,0.00,WeatherDisplay:10.37,2013-07-20 16:15:00,
2013-07-20 12:20:00,80.2,58.8,31.01,North,0,0.0,0.0,48,0.00,CLR,FEW,0.00,WeatherDisplay:10.37,2013-07-20 16:20:00,
2013-07-20 12:25:00,80.1,60.3,31.01,North,0,0.0,0.0,51,0.00,CLR,FEW,0.00,WeatherDisplay:10.37,2013-07-20 16:25:00,
2013-07-20 12:30:00,79.9,62.8,31.01,North,0,0.0,0.0,56,0.00,CLR,FEW,0.00,WeatherDisplay:10.37,2013-07-20 16:30:00,
2013-07-20 12:35:00,79.9,64.8,31.01,North,0,0.0,0.0,60,0.00,CLR,FEW,0.00,WeatherDisplay:10.37,2013-07-20 16:35:00,
2013-07-20 12:40:00,79.5,65.4,31.01,North,0,0.0,0.0,62,0.00,CLR,FEW,0.00,WeatherDisplay:10.37,2013-07-20 16:40:00,
2013-07-20 12:45:00,79.3,66.1,31.01,North,0,0.0,0.0,64,0.00,CLR,FEW,0.00,WeatherDisplay:10.37,2013-07-20 16:45:00,
2013-07-20 12:50:00,79.5,63.9,28.44,North,0,0.0,0.0,59,0.00,CLR,FEW,0.00,WeatherDisplay:10.37,2013-07-20 16:50:00,
2013-07-20 12:55:00,79.7,62.1,28.44,North,0,0.0,0.0,55,0.00,CLR,FEW,0.00,WeatherDisplay:10.37,2013-07-20 16:55:00,
2013-07-20 13:00:00,80.1,62.4,28.44,North,0,0.0,0.0,55,0.00,CLR,FEW,0.00,WeatherDisplay:10.37,2013-07-20 17:00:00,
2013-07-20 13:05:00,80.8,63.1,28.44,North,0,0.0,0.0,55,0.00,CLR,FEW,0.00,WeatherDisplay:10.37,2013-07-20 17:05:00,
2013-07-20 13:10:00,81.9,63.6,28.44,North,0,0.0,0.0,54,0.00,CLR,FEW,0.00,WeatherDisplay:10.37,2013-07-20 17:10:00,
2013-07-20 13:15:00,83.3,61.6,28.44,North,0,0.0,0.0,48,0.00,CLR,FEW,0.00,WeatherDisplay:10.37,2013-07-20 17:15:00,
2013-07-20 13:20:00,84.4,58.8,28.44,North,0,0.0,0.0,42,0.00,CLR,FEW,0.00,WeatherDisplay:10.37,2013-07-20 17:20:00,
2013-07-20 13:25:00,84.9,59.3,28.44,North,0,0.0,0.0,42,0.00,CLR,FEW,0.00,WeatherDisplay:10.37,2013-07-20 17:25:00,
2013-07-20 13:30:00,85.5,59.1,28.44,North,0,0.0,0.0,41,0.00,CLR,FEW,0.00,WeatherDisplay:10.37,2013-07-20 17:30:00,
2013-07-20 13:35:00,85.5,58.4,28.44,North,0,0.0,0.0,40,0.00,CLR,FEW,0.00,WeatherDisplay:10.37,2013-07-20 17:35:00,
2013-07-20 13:40:00,85.6,59.2,28.44,North,0,0.0,0.0,41,0.00,CLR,FEW,0.00,WeatherDisplay:10.37,2013-07-20 17:40:00,
2013-07-20 13:45:00,85.5,58.4,28.44,North,0,0.0,0.0,40,0.00,CLR,FEW,0.00,WeatherDisplay:10.37,2013-07-20 17:45:00,
2013-07-20 13:50:00,85.3,58.2,28.44,North,0,0.0,0.0,40,0.00,CLR,FEW,0.00,WeatherDisplay:10.37,2013-07-20 17:50:00,
2013-07-20 13:55:00,85.3,58.2,28.44,North,0,0.0,0.0,40,0.00,CLR,FEW,0.00,WeatherDisplay:10.37,2013-07-20 17:55:00,
2013-07-20 14:00:00,85.3,59.6,28.44,North,0,0.0,0.0,42,0.00,CLR,FEW,0.00,WeatherDisplay:10.37,2013-07-20 18:00:00,
2013-07-20 14:05:00,84.9,58.6,28.44,North,0,0.0,0.0,41,0.00,CLR,FEW,0.00,WeatherDisplay:10.37,2013-07-20 18:05:00,
2013-07-20 14:10:00,84.7,59.1,28.44,North,0,0.0,0.0,42,0.00,CLR,FEW,0.00,WeatherDisplay:10.37,2013-07-20 18:10:00,
2013-07-20 14:15:00,84.7,58.4,28.44,North,0,0.0,0.0,41,0.00,CLR,FEW,0.00,WeatherDisplay:10.37,2013-07-20 18:15:00,
2013-07-20 14:20:00,84.9,58.6,28.44,North,0,0.0,0.0,41,0.00,CLR,FEW,0.00,WeatherDisplay:10.37,2013-07-20 18:20:00,
2013-07-20 14:26:00,84.7,57.7,28.44,North,0,0.0,0.0,40,0.00,CLR,FEW,0.00,WeatherDisplay:10.37,2013-07-20 18:26:00,
2013-07-20 14:31:00,84.7,58.4,28.44,North,0,0.0,0.0,41,0.00,CLR,FEW,0.00,WeatherDisplay:10.37,2013-07-20 18:31:00,
2013-07-20 14:36:00,84.6,55.4,28.44,North,0,0.0,0.0,37,0.00,CLR,FEW,0.00,WeatherDisplay:10.37,2013-07-20 18:36:00,
2013-07-20 14:41:00,84.6,56.9,28.44,North,0,0.0,0.0,39,0.00,CLR,FEW,0.00,WeatherDisplay:10.37,2013-07-20 18:41:00,
2013-07-20 14:46:00,84.6,57.6,28.44,North,0,0.0,0.0,40,0.00,CLR,FEW,0.00,WeatherDisplay:10.37,2013-07-20 18:46:00,
2013-07-20 14:51:00,84.7,57.7,28.44,North,0,0.0,0.0,40,0.00,CLR,FEW,0.00,WeatherDisplay:10.37,2013-07-20 18:51:00,
2013-07-20 14:56:00,84.7,58.4,28.44,North,0,0.0,0.0,41,0.00,CLR,FEW,0.00,WeatherDisplay:10.37,2013-07-20 18:56:00,
2013-07-20 15:02:00,84.7,58.4,28.44,North,0,0.0,0.0,41,0.00,CLR,FEW,0.00,WeatherDisplay:10.37,2013-07-20 19:02:00,
2013-07-20 15:07:00,84.7,58.4,28.44,North,0,0.0,0.0,41,0.00,CLR,FEW,0.00,WeatherDisplay:10.37,2013-07-20 19:07:00,
2013-07-20 15:12:00,85.3,57.5,28.44,North,0,0.0,0.0,39,0.00,CLR,FEW,0.00,WeatherDisplay:10.37,2013-07-20 19:12:00,
2013-07-20 15:17:00,85.3,55.3,28.44,North,0,0.0,0.0,36,0.00,CLR,FEW,0.00,WeatherDisplay:10.37,2013-07-20 19:17:00,
2013-07-20 15:22:00,85.5,58.4,28.44,North,0,0.0,0.0,40,0.00,CLR,FEW,0.00,WeatherDisplay:10.37,2013-07-20 19:22:00,
2013-07-20 15:27:00,85.5,57.7,28.44,North,0,0.0,0.0,39,0.00,CLR,FEW,0.00,WeatherDisplay:10.37,2013-07-20 19:27:00,
2013-07-20 15:32:00,85.6,58.5,28.44,North,0,0.0,0.0,40,0.00,CLR,FEW,0.00,WeatherDisplay:10.37,2013-07-20 19:32:00,
2013-07-20 15:37:00,85.3,57.5,28.44,North,0,0.0,0.0,39,0.00,CLR,FEW,0.00,WeatherDisplay:10.37,2013-07-20 19:37:00,
2013-07-20 15:42:00,85.1,57.4,28.44,North,0,0.0,0.0,39,0.00,CLR,FEW,0.00,WeatherDisplay:10.37,2013-07-20 19:42:00,
2013-07-20 15:47:00,85.3,58.2,28.44,North,0,0.0,0.0,40,0.00,CLR,FEW,0.00,WeatherDisplay:10.37,2013-07-20 19:47:00,
2013-07-20 15:52:00,84.9,57.9,28.44,North,0,0.0,0.0,40,0.00,CLR,FEW,0.00,WeatherDisplay:10.37,2013-07-20 19:52:00,
2013-07-20 15:57:00,84.0,57.8,28.44,North,0,0.0,0.0,41,0.00,CLR,FEW,0.00,WeatherDisplay:10.37,2013-07-20 19:57:00,
2013-07-20 16:02:00,83.3,57.8,28.44,North,0,0.0,0.0,42,0.00,CLR,FEW,0.00,WeatherDisplay:10.37,2013-07-20 20:02:00,
2013-07-20 16:08:00,82.9,61.2,28.44,North,0,0.0,0.0,48,0.00,CLR,FEW,0.00,WeatherDisplay:10.37,2013-07-20 20:08:00,
2013-07-20 16:13:00,81.9,63.6,28.44,North,0,0.0,0.0,54,0.00,CLR,FEW,0.00,WeatherDisplay:10.37,2013-07-20 20:13:00,
2013-07-20 16:18:00,81.0,64.3,28.44,North,0,0.0,0.0,57,0.00,CLR,FEW,0.00,WeatherDisplay:10.37,2013-07-20 20:18:00,
2013-07-20 16:23:00,80.4,64.3,28.44,North,0,0.0,0.0,58,0.00,CLR,FEW,0.00,WeatherDisplay:10.37,2013-07-20 20:23:00,
2013-07-20 16:28:00,80.2,63.6,28.44,North,0,0.0,0.0,57,0.00,CLR,FEW,0.00,WeatherDisplay:10.37,2013-07-20 20:28:00,
2013-07-20 16:33:00,80.2,64.1,28.44,North,0,0.0,0.0,58,0.00,CLR,FEW,0.00,WeatherDisplay:10.37,2013-07-20 20:33:00,
2013-07-20 16:38:00,80.4,64.8,28.44,North,0,0.0,0.0,59,0.00,CLR,FEW,0.00,WeatherDisplay:10.37,2013-07-20 20:38:00,
2013-07-20 16:43:00,80.4,64.3,28.44,North,0,0.0,0.0,58,0.00,CLR,FEW,0.00,WeatherDisplay:10.37,2013-07-20 20:43:00,
2013-07-20 16:48:00,80.8,66.5,28.44,North,0,0.0,0.0,62,0.00,CLR,FEW,0.00,WeatherDisplay:10.37,2013-07-20 20:48:00,
2013-07-20 16:53:00,80.4,66.2,28.44,North,0,0.0,0.0,62,0.00,CLR,FEW,0.00,WeatherDisplay:10.37,2013-07-20 20:53:00,
2013-07-20 16:58:00,80.6,68.2,28.44,North,0,0.0,0.0,66,0.00,CLR,FEW,0.00,WeatherDisplay:10.37,2013-07-20 20:58:00,
2013-07-20 17:03:00,80.8,67.9,28.44,North,0,0.0,0.0,65,0.00,CLR,FEW,0.00,WeatherDisplay:10.37,2013-07-20 21:03:00,
2013-07-20 17:08:00,81.3,66.6,28.44,North,0,0.0,0.0,61,0.00,CLR,FEW,0.00,WeatherDisplay:10.37,2013-07-20 21:08:00,
2013-07-20 17:13:00,81.1,65.5,28.44,North,0,0.0,0.0,59,0.00,CLR,FEW,0.00,WeatherDisplay:10.37,2013-07-20 21:13:00,
2013-07-20 17:18:00,81.1,64.0,28.44,North,0,0.0,0.0,56,0.00,CLR,FEW,0.00,WeatherDisplay:10.37,2013-07-20 21:18:00,
2013-07-20 17:23:00,81.1,61.8,28.44,North,0,0.0,0.0,52,0.00,CLR,FEW,0.00,WeatherDisplay:10.37,2013-07-20 21:23:00,
2013-07-20 17:28:00,81.5,61.6,28.44,North,0,0.0,0.0,51,0.00,CLR,FEW,0.00,WeatherDisplay:10.37,2013-07-20 21:28:00,
2013-07-20 17:33:00,81.9,60.8,28.44,North,0,0.0,0.0,49,0.00,CLR,FEW,0.00,WeatherDisplay:10.37,2013-07-20 21:33:00,
2013-07-20 17:39:00,82.0,61.6,28.44,North,0,0.0,0.0,50,0.00,CLR,FEW,0.00,WeatherDisplay:10.37,2013-07-20 21:39:00,
2013-07-20 17:44:00,81.7,62.3,28.44,North,0,0.0,0.0,52,0.00,CLR,FEW,0.00,WeatherDisplay:10.37,2013-07-20 21:44:00,
2013-07-20 17:49:00,81.5,62.7,28.44,North,0,0.0,0.0,53,0.00,CLR,FEW,0.00,WeatherDisplay:10.37,2013-07-20 21:49:00,
2013-07-20 17:54:00,81.5,63.8,28.44,North,0,0.0,0.0,55,0.00,CLR,FEW,0.00,WeatherDisplay:10.37,2013-07-20 21:54:00,
2013-07-20 17:59:00,81.5,63.8,28.44,North,0,0.0,0.0,55,0.00,CLR,FEW,0.00,WeatherDisplay:10.37,2013-07-20 21:59:00,
2013-07-20 18:05:00,81.3,63.1,28.44,North,0,0.0,0.0,54,0.00,CLR,FEW,0.00,WeatherDisplay:10.37,2013-07-20 22:05:00,
2013-07-20 18:10:00,81.3,63.6,28.44,North,0,0.0,0.0,55,0.00,CLR,FEW,0.00,WeatherDisplay:10.37,2013-07-20 22:10:00,
2013-07-20 18:15:00,81.5,63.3,28.44,North,0,0.0,0.0,54,0.00,CLR,FEW,0.00,WeatherDisplay:10.37,2013-07-20 22:15:00,
2013-07-20 18:20:00,81.5,59.3,28.44,North,0,0.0,0.0,47,0.00,CLR,FEW,0.00,WeatherDisplay:10.37,2013-07-20 22:20:00,
2013-07-20 18:25:00,81.7,59.5,28.44,North,0,0.0,0.0,47,0.00,CLR,FEW,0.00,WeatherDisplay:10.37,2013-07-20 22:25:00,
2013-07-20 18:31:00,81.5,59.3,28.44,North,0,0.0,0.0,47,0.00,CLR,FEW,0.00,WeatherDisplay:10.37,2013-07-20 22:31:00,
2013-07-20 18:36:00,81.5,59.3,28.44,North,0,0.0,0.0,47,0.00,CLR,FEW,0.00,WeatherDisplay:10.37,2013-07-20 22:36:00,
2013-07-20 18:41:00,81.5,59.9,28.44,North,0,0.0,0.0,48,0.00,CLR,FEW,0.00,WeatherDisplay:10.37,2013-07-20 22:41:00,
2013-07-20 18:46:00,81.3,59.8,28.44,North,0,0.0,0.0,48,0.00,CLR,FEW,0.00,WeatherDisplay:10.37,2013-07-20 22:46:00,
2013-07-20 18:51:00,81.3,59.2,28.44,North,0,0.0,0.0,47,0.00,CLR,FEW,0.00,WeatherDisplay:10.37,2013-07-20 22:51:00,
2013-07-20 18:56:00,81.3,59.8,28.44,North,0,0.0,0.0,48,0.00,CLR,FEW,0.00,WeatherDisplay:10.37,2013-07-20 22:56:00,
2013-07-20 19:01:00,81.1,59.0,28.44,North,0,0.0,0.0,47,0.00,CLR,FEW,0.00,WeatherDisplay:10.37,2013-07-20 23:01:00,
2013-07-20 19:06:00,81.1,58.4,28.44,North,0,0.0,0.0,46,0.00,CLR,FEW,0.00,WeatherDisplay:10.37,2013-07-20 23:06:00,
2013-07-20 19:11:00,81.1,57.8,28.44,North,0,0.0,0.0,45,0.00,CLR,FEW,0.00,WeatherDisplay:10.37,2013-07-20 23:11:00,
2013-07-20 19:16:00,81.1,57.2,28.44,North,0,0.0,0.0,44,0.00,CLR,FEW,0.00,WeatherDisplay:10.37,2013-07-20 23:16:00,
2013-07-20 19:21:00,81.3,56.0,28.44,North,0,0.0,0.0,42,0.00,CLR,FEW,0.00,WeatherDisplay:10.37,2013-07-20 23:21:00,
2013-07-20 19:26:00,81.7,58.3,28.44,North,0,0.0,0.0,45,0.00,CLR,FEW,0.00,WeatherDisplay:10.37,2013-07-20 23:26:00,
2013-07-20 19:31:00,81.5,59.3,28.44,North,0,0.0,0.0,47,0.00,CLR,FEW,0.00,WeatherDisplay:10.37,2013-07-20 23:31:00,
2013-07-20 19:36:00,81.3,60.3,28.44,North,0,0.0,0.0,49,0.00,CLR,FEW,0.00,WeatherDisplay:10.37,2013-07-20 23:36:00,
2013-07-20 19:41:00,81.0,60.0,28.44,North,0,0.0,0.0,49,0.00,CLR,FEW,0.00,WeatherDisplay:10.37,2013-07-20 23:41:00,
2013-07-20 19:46:00,80.8,59.8,28.44,North,0,0.0,0.0,49,0.00,CLR,FEW,0.00,WeatherDisplay:10.37,2013-07-20 23:46:00,
2013-07-20 19:51:00,81.0,62.7,28.44,North,0,0.0,0.0,54,0.00,CLR,FEW,0.00,WeatherDisplay:10.37,2013-07-20 23:51:00,
2013-07-20 19:56:00,80.6,61.3,28.44,North,0,0.0,0.0,52,0.00,CLR,FEW,0.00,WeatherDisplay:10.37,2013-07-20 23:56:00,
2013-07-20 20:01:00,80.6,62.4,28.44,North,0,0.0,0.0,54,0.00,CLR,FEW,0.00,WeatherDisplay:10.37,2013-07-21 00:01:00,
2013-07-20 20:06:00,80.4,62.2,28.44,North,0,0.0,0.0,54,0.00,CLR,FEW,0.00,WeatherDisplay:10.37,2013-07-21 00:06:00,
2013-07-20 20:12:00,80.4,62.8,28.44,North,0,0.0,0.0,55,0.00,CLR,FEW,0.00,WeatherDisplay:10.37,2013-07-21 00:12:00,
2013-07-20 20:17:00,80.4,63.3,28.44,North,0,0.0,0.0,56,0.00,CLR,FEW,0.00,WeatherDisplay:10.37,2013-07-21 00:17:00,
2013-07-20 20:22:00,80.4,63.3,28.44,North,0,0.0,0.0,56,0.00,CLR,FEW,0.00,WeatherDisplay:10.37,2013-07-21 00:22:00,
2013-07-20 20:27:00,80.6,63.5,28.44,North,0,0.0,0.0,56,0.00,CLR,FEW,0.00,WeatherDisplay:10.37,2013-07-21 00:27:00,
2013-07-20 20:32:00,80.6,63.5,28.44,North,0,0.0,0.0,56,0.00,CLR,FEW,0.00,WeatherDisplay:10.37,2013-07-21 00:32:00,
2013-07-20 20:37:00,80.6,64.0,28.44,North,0,0.0,0.0,57,0.00,CLR,FEW,0.00,WeatherDisplay:10.37,2013-07-21 00:37:00,
2013-07-20 20:42:00,80.4,64.8,28.44,North,0,0.0,0.0,59,0.00,CLR,FEW,0.00,WeatherDisplay:10.37,2013-07-21 00:42:00,
2013-07-20 20:47:00,80.4,65.3,28.44,North,0,0.0,0.0,60,0.00,CLR,FEW,0.00,WeatherDisplay:10.37,2013-07-21 00:47:00,
2013-07-20 20:52:00,80.2,65.1,28.44,North,0,0.0,0.0,60,0.00,CLR,FEW,0.00,WeatherDisplay:10.37,2013-07-21 00:52:00,
2013-07-20 20:58:00,80.4,66.2,28.44,North,0,0.0,0.0,62,0.00,CLR,FEW,0.00,WeatherDisplay:10.37,2013-07-21 00:58:00,
2013-07-20 21:04:00,80.4,66.7,28.44,North,0,0.0,0.0,63,0.00,CLR,FEW,0.00,WeatherDisplay:10.37,2013-07-21 01:04:00,
2013-07-20 21:09:00,80.4,67.1,28.44,North,0,0.0,0.0,64,0.00,CLR,FEW,0.00,WeatherDisplay:10.37,2013-07-21 01:09:00,
2013-07-20 21:14:00,80.2,67.0,28.44,North,0,0.0,0.0,64,0.00,CLR,FEW,0.00,WeatherDisplay:10.37,2013-07-21 01:14:00,
2013-07-20 21:19:00,80.2,67.0,28.44,North,0,0.0,0.0,64,0.00,CLR,FEW,0.00,WeatherDisplay:10.37,2013-07-21 01:19:00,
2013-07-20 21:24:00,80.2,67.0,28.44,North,0,0.0,0.0,64,0.00,CLR,FEW,0.00,WeatherDisplay:10.37,2013-07-21 01:24:00,
2013-07-20 21:29:00,80.2,67.4,28.44,North,0,0.0,0.0,65,0.00,CLR,FEW,0.00,WeatherDisplay:10.37,2013-07-21 01:29:00,
2013-07-20 21:34:00,80.2,67.4,28.44,North,0,0.0,0.0,65,0.00,CLR,FEW,0.00,WeatherDisplay:10.37,2013-07-21 01:34:00,
2013-07-20 21:39:00,80.2,67.4,28.44,North,0,0.0,0.0,65,0.00,CLR,FEW,0.00,WeatherDisplay:10.37,2013-07-21 01:39:00,
2013-07-20 21:44:00,80.4,67.6,28.44,North,0,0.0,0.0,65,0.00,CLR,FEW,0.00,WeatherDisplay:10.37,2013-07-21 01:44:00,
2013-07-20 21:50:00,80.4,68.0,28.44,North,0,0.0,0.0,66,0.00,CLR,FEW,0.00,WeatherDisplay:10.37,2013-07-21 01:50:00,
2013-07-20 21:55:00,80.4,67.6,28.44,North,0,0.0,0.0,65,0.00,CLR,FEW,0.00,WeatherDisplay:10.37,2013-07-21 01:55:00,
2013-07-20 22:00:00,80.4,68.0,28.44,North,0,0.0,0.0,66,0.00,CLR,FEW,0.00,WeatherDisplay:10.37,2013-07-21 02:00:00,
2013-07-20 22:05:00,80.4,68.0,28.44,North,0,0.0,0.0,66,0.00,CLR,FEW,0.00,WeatherDisplay:10.37,2013-07-21 02:05:00,
2013-07-20 22:10:00,80.6,68.2,28.44,North,0,0.0,0.0,66,0.00,CLR,FEW,0.00,WeatherDisplay:10.37,2013-07-21 02:10:00,
2013-07-20 22:15:00,80.6,68.2,28.44,North,0,0.0,0.0,66,0.00,CLR,FEW,0.00,WeatherDisplay:10.37,2013-07-21 02:15:00,
2013-07-20 22:21:00,80.6,68.2,28.44,North,0,0.0,0.0,66,0.00,CLR,FEW,0.00,WeatherDisplay:10.37,2013-07-21 02:21:00,
2013-07-20 22:26:00,80.6,68.2,28.44,North,0,0.0,0.0,66,0.00,CLR,FEW,0.00,WeatherDisplay:10.37,2013-07-21 02:26:00,
2013-07-20 22:31:00,80.6,68.2,28.44,North,0,0.0,0.0,66,0.00,CLR,FEW,0.00,WeatherDisplay:10.37,2013-07-21 02:31:00,
2013-07-20 22:36:00,80.6,68.6,28.44,North,0,0.0,0.0,67,0.00,CLR,FEW,0.00,WeatherDisplay:10.37,2013-07-21 02:36:00,
2013-07-20 22:41:00,80.6,68.6,28.44,North,0,0.0,0.0,67,0.00,CLR,FEW,0.00,WeatherDisplay:10.37,2013-07-21 02:41:00,
2013-07-20 22:47:00,80.8,68.8,28.44,North,0,0.0,0.0,67,0.00,CLR,FEW,0.00,WeatherDisplay:10.37,2013-07-21 02:47:00,
2013-07-20 22:52:00,80.8,69.2,28.44,North,0,0.0,0.0,68,0.00,CLR,FEW,0.00,WeatherDisplay:10.37,2013-07-21 02:52:00,
2013-07-20 22:58:00,80.1,62.9,28.44,North,0,0.0,0.0,56,0.00,CLR,FEW,0.00,WeatherDisplay:10.37,2013-07-21 02:58:00,
2013-07-20 23:03:00,79.5,63.9,28.44,North,0,0.0,0.0,59,0.00,CLR,FEW,0.00,WeatherDisplay:10.37,2013-07-21 03:03:00,
2013-07-20 23:08:00,78.8,64.7,28.44,North,0,0.0,0.0,62,0.00,CLR,FEW,0.00,WeatherDisplay:10.37,2013-07-21 03:08:00,
2013-07-20 23:14:00,78.4,65.2,28.44,North,0,0.0,0.0,64,0.00,CLR,FEW,0.00,WeatherDisplay:10.37,2013-07-21 03:14:00,
2013-07-20 23:20:00,78.3,65.1,28.44,North,0,0.0,0.0,64,0.00,CLR,FEW,0.00,WeatherDisplay:10.37,2013-07-21 03:20:00,
2013-07-20 23:25:00,78.3,65.1,28.44,North,0,0.0,0.0,64,0.00,CLR,FEW,0.00,WeatherDisplay:10.37,2013-07-21 03:25:00,
2013-07-20 23:30:00,78.1,64.5,28.44,North,0,0.0,0.0,63,0.00,CLR,FEW,0.00,WeatherDisplay:10.37,2013-07-21 03:30:00,
2013-07-20 23:35:00,78.3,65.1,28.44,North,0,0.0,0.0,64,0.00,CLR,FEW,0.00,WeatherDisplay:10.37,2013-07-21 03:35:00,
2013-07-20 23:40:00,78.1,64.0,28.44,North,0,0.0,0.0,62,0.00,CLR,FEW,0.00,WeatherDisplay:10.37,2013-07-21 03:40:00,
2013-07-20 23:45:00,78.3,64.2,28.44,North,0,0.0,0.0,62,0.00,CLR,FEW,0.00,WeatherDisplay:10.37,2013-07-21 03:45:00,
2013-07-20 23:50:00,78.3,64.6,28.44,North,0,0.0,0.0,63,0.00,CLR,FEW,0.00,WeatherDisplay:10.37,2013-07-21 03:50:00,
2013-07-20 23:56:00,78.3,65.1,28.44,North,0,0.0,0.0,64,0.00,CLR,FEW,0.00,WeatherDisplay:10.37,2013-07-21 03:56:00,